Terminal Aerodrome Forecast
Issued by NWS Pendleton, OR

Home | Current Version | Previous Version | Text Only | Print | Product List | Glossary On
Versions: 1 2 3 4 5 6 7 8 9 10 11 12 13 14 15 16 17 18 19 20 21 22
000
FTUS46 KPDT 261100
TAFPDT
TAF
KPDT 261132Z 2612/2712 32005KT 1/4SM FG OVC001
     FM261800 VRB05KT 1SM BR OVC003
     FM262100 VRB05KT 3SM BR OVC006
     FM270400 VRB04KT 1/2SM FG OVC002=

USA.gov is the U.S. government's official web portal to all federal, state and local government web resources and services.